Time;durP1;ratioP1;P1;durP2;ratioP2;P2;SDS_P1;SDS_P2;PMS_P1;PMS_P2;Temp;Humidity;BMP_temperature;BMP_pressure;BME280_temperature;BME280_humidity;BME280_pressure;Samples;Min_cycle;Max_cycle;Signal;HPM_P1;HPM_P2
2022/08/27 00:00:14;;;;;;;5.93;3.80;;;24.00;91.40;;;;;;5009396;28;20534;-75
2022/08/27 00:02:40;;;;;;;4.70;3.53;;;24.10;91.40;;;;;;5003906;28;20077;-75
2022/08/27 00:05:06;;;;;;;5.85;3.80;;;24.00;91.40;;;;;;4996100;28;20039;-75
2022/08/27 00:07:32;;;;;;;4.00;3.50;;;24.00;91.40;;;;;;5007935;28;20033;-75
2022/08/27 00:09:58;;;;;;;4.97;4.07;;;24.00;91.40;;;;;;5011901;28;20034;-75
2022/08/27 00:12:24;;;;;;;5.45;3.60;;;24.00;91.40;;;;;;5005095;28;20034;-75
2022/08/27 00:14:50;;;;;;;5.50;3.50;;;24.00;91.40;;;;;;5010706;28;20083;-75
2022/08/27 00:17:16;;;;;;;5.53;4.32;;;24.00;91.40;;;;;;5000140;28;20030;-75
2022/08/27 00:19:43;;;;;;;4.85;3.40;;;24.00;91.40;;;;;;5010996;28;20121;-75
2022/08/27 00:22:09;;;;;;;5.22;3.78;;;24.00;91.50;;;;;;5011963;28;20474;-75
2022/08/27 00:24:35;;;;;;;4.18;3.78;;;24.00;91.40;;;;;;5008811;28;20169;-75
2022/08/27 00:27:01;;;;;;;4.22;3.55;;;24.00;91.50;;;;;;5006632;28;20784;-75
2022/08/27 00:29:27;;;;;;;5.20;4.47;;;24.00;91.50;;;;;;4998207;28;20084;-75
2022/08/27 00:31:53;;;;;;;5.47;4.03;;;24.00;91.50;;;;;;5003303;28;20045;-75
2022/08/27 00:34:22;;;;;;;4.57;3.60;;;23.90;91.50;;;;;;5003132;28;20024;-75
2022/08/27 00:36:48;;;;;;;4.72;4.22;;;23.90;91.40;;;;;;5008855;28;20466;-75
2022/08/27 00:39:14;;;;;;;5.80;3.70;;;24.00;91.50;;;;;;5009102;28;20494;-75
2022/08/27 00:41:42;;;;;;;4.40;3.70;;;23.90;91.50;;;;;;5002537;28;20099;-75
2022/08/27 00:44:08;;;;;;;6.82;4.25;;;23.90;91.40;;;;;;5005063;28;20029;-76
2022/08/27 00:46:42;;;;;;;4.65;4.25;;;23.90;91.70;;;;;;4987337;28;20069;-75
2022/08/27 00:49:20;;;;;;;5.75;3.95;;;23.90;91.40;;;;;;5031441;28;20021;-76
2022/08/27 00:52:05;;;;;;;4.78;4.18;;;23.90;91.50;;;;;;5022044;28;20479;-75
2022/08/27 00:54:31;;;;;;;4.38;3.97;;;23.90;91.40;;;;;;5037218;28;20120;-75
2022/08/27 00:56:59;;;;;;;7.20;4.82;;;23.90;91.40;;;;;;5041856;28;20028;-75
2022/08/27 00:59:29;;;;;;;5.30;4.47;;;23.90;91.40;;;;;;5027983;28;20053;-75
2022/08/27 01:04:43;;;;;;;6.82;4.13;;;23.80;91.40;;;;;;5027639;28;20064;-75
2022/08/27 01:07:10;;;;;;;5.68;4.38;;;23.80;91.40;;;;;;5043247;28;20033;-75
2022/08/27 01:09:37;;;;;;;6.35;4.65;;;23.80;91.40;;;;;;5031497;28;20052;-75
2022/08/27 01:12:03;;;;;;;5.68;5.00;;;23.80;91.40;;;;;;5030930;28;20030;-75
2022/08/27 01:14:29;;;;;;;5.65;5.07;;;23.80;91.40;;;;;;5034363;28;20060;-75
2022/08/27 01:16:57;;;;;;;9.27;5.75;;;23.80;91.40;;;;;;5055847;28;20045;-75
2022/08/27 01:19:34;;;;;;;5.40;4.90;;;23.80;91.40;;;;;;5025579;28;20109;-75
2022/08/27 01:22:10;;;;;;;6.35;5.15;;;23.80;91.40;;;;;;5031242;28;20034;-75
2022/08/27 01:24:45;;;;;;;6.00;5.35;;;23.80;91.50;;;;;;5032962;28;20033;-75
2022/08/27 01:27:15;;;;;;;5.75;5.15;;;23.80;91.50;;;;;;5033377;28;20041;-75
2022/08/27 01:29:42;;;;;;;10.63;4.88;;;23.70;91.40;;;;;;5031221;28;20359;-75
2022/08/27 01:32:16;;;;;;;5.30;4.80;;;23.70;91.80;;;;;;5022902;28;20430;-75
2022/08/27 01:34:41;;;;;;;5.45;4.88;;;23.70;91.50;;;;;;5036273;28;20041;-75
2022/08/27 01:37:08;;;;;;;5.53;5.03;;;23.70;91.50;;;;;;5048091;28;20052;-75
2022/08/27 01:39:35;;;;;;;5.28;4.50;;;23.70;91.50;;;;;;5031089;28;20018;-75
2022/08/27 01:42:14;;;;;;;4.97;4.45;;;23.70;91.50;;;;;;5026380;28;20557;-75
2022/08/27 01:44:46;;;;;;;7.10;5.13;;;23.70;91.50;;;;;;5046070;28;20072;-75
2022/08/27 01:47:12;;;;;;;6.20;5.60;;;23.70;91.40;;;;;;5036457;28;20038;-75
2022/08/27 01:49:38;;;;;;;5.55;5.05;;;23.70;91.40;;;;;;5032250;28;20026;-75
2022/08/27 01:52:04;;;;;;;6.97;6.28;;;23.70;91.40;;;;;;5035343;28;20082;-75
2022/08/27 01:54:32;;;;;;;6.10;5.47;;;23.70;91.40;;;;;;5028178;28;20025;-75
2022/08/27 01:56:58;;;;;;;7.22;6.18;;;23.70;91.40;;;;;;5037887;28;20026;-75
2022/08/27 01:59:24;;;;;;;6.68;5.57;;;23.70;91.40;;;;;;5033611;28;20026;-75
2022/08/27 02:01:52;;;;;;;7.72;5.70;;;23.70;91.40;;;;;;5030124;28;20176;-75
2022/08/27 02:04:18;;;;;;;10.07;6.15;;;23.70;91.40;;;;;;5032271;28;20067;-75
2022/08/27 02:06:44;;;;;;;6.05;5.45;;;23.70;91.40;;;;;;5026858;28;20043;-75
2022/08/27 02:09:09;;;;;;;7.68;6.20;;;23.60;91.40;;;;;;5028494;28;20022;-75
2022/08/27 02:11:35;;;;;;;9.25;5.70;;;23.60;91.40;;;;;;5034455;28;20064;-75
2022/08/27 02:14:01;;;;;;;7.28;5.57;;;23.60;91.40;;;;;;5042833;28;20475;-75
2022/08/27 02:16:26;;;;;;;6.80;6.10;;;23.60;91.40;;;;;;5035400;28;20107;-75
2022/08/27 02:18:53;;;;;;;7.18;6.45;;;23.60;91.40;;;;;;5030554;28;20026;-75
2022/08/27 02:21:19;;;;;;;7.57;6.50;;;23.60;91.40;;;;;;5021056;28;20486;-75
2022/08/27 02:23:45;;;;;;;9.82;6.55;;;23.70;91.30;;;;;;5042436;28;20116;-75
2022/08/27 02:26:12;;;;;;;7.25;6.55;;;23.60;91.30;;;;;;5030057;28;20030;-75
2022/08/27 02:28:37;;;;;;;8.15;6.72;;;23.60;91.40;;;;;;5029339;28;20389;-75
2022/08/27 02:31:03;;;;;;;7.20;6.50;;;23.60;91.30;;;;;;5023561;28;20034;-75
2022/08/27 02:33:31;;;;;;;8.90;6.57;;;23.60;91.40;;;;;;5003252;28;20042;-75
2022/08/27 02:35:57;;;;;;;9.23;7.53;;;23.60;91.30;;;;;;5034116;28;20037;-75
2022/08/27 02:38:27;;;;;;;9.20;7.50;;;23.60;91.40;;;;;;5034892;28;20032;-75
2022/08/27 02:40:52;;;;;;;8.63;7.35;;;23.60;91.40;;;;;;5024398;28;20022;-75
2022/08/27 02:43:18;;;;;;;8.05;6.63;;;23.60;91.40;;;;;;5025767;28;20036;-75
2022/08/27 02:45:44;;;;;;;8.73;7.82;;;23.50;91.30;;;;;;5040572;28;20108;-75
2022/08/27 02:48:10;;;;;;;8.10;7.25;;;23.50;91.30;;;;;;5028496;28;20660;-76
2022/08/27 02:50:36;;;;;;;8.77;7.07;;;23.50;91.30;;;;;;5013551;28;20030;-76
2022/08/27 02:53:03;;;;;;;7.55;6.85;;;23.40;91.30;;;;;;5029892;28;20235;-76
2022/08/27 02:55:30;;;;;;;7.35;6.65;;;23.40;91.40;;;;;;5047648;28;20174;-76
2022/08/27 02:57:56;;;;;;;7.18;6.47;;;23.40;91.40;;;;;;5025684;28;20043;-76
2022/08/27 03:00:24;;;;;;;8.25;7.15;;;23.40;91.40;;;;;;5031451;28;20025;-75
2022/08/27 03:02:50;;;;;;;9.13;7.95;;;23.40;91.30;;;;;;5025377;28;20036;-76
2022/08/27 03:05:17;;;;;;;8.13;6.95;;;23.40;91.30;;;;;;5027989;28;20497;-76
2022/08/27 03:07:44;;;;;;;8.48;7.38;;;23.40;91.40;;;;;;5029183;28;20506;-75
2022/08/27 03:10:14;;;;;;;7.72;6.82;;;23.40;91.30;;;;;;5025938;28;20061;-76
2022/08/27 03:12:40;;;;;;;8.65;7.18;;;23.40;91.40;;;;;;5050826;28;20568;-76
2022/08/27 03:15:09;;;;;;;7.95;7.15;;;23.40;91.40;;;;;;5042124;28;20073;-75
2022/08/27 03:20:19;;;;;;;8.43;7.22;;;23.40;91.40;;;;;;5023980;28;20113;-76
2022/08/27 03:22:45;;;;;;;8.30;7.28;;;23.30;91.30;;;;;;5042273;28;20115;-75
2022/08/27 03:25:11;;;;;;;7.57;6.32;;;23.30;91.30;;;;;;5025252;28;20060;-76
2022/08/27 03:27:37;;;;;;;8.15;7.05;;;23.40;91.40;;;;;;5027697;28;20033;-76
2022/08/27 03:30:06;;;;;;;7.88;6.88;;;23.30;91.40;;;;;;5033398;28;20037;-76
2022/08/27 03:32:32;;;;;;;8.35;7.18;;;23.30;91.40;;;;;;5020495;28;20545;-76
2022/08/27 03:34:58;;;;;;;11.60;7.82;;;23.30;91.30;;;;;;5028999;28;20116;-75
2022/08/27 03:37:24;;;;;;;8.13;7.15;;;23.30;91.40;;;;;;5015781;28;20508;-75
2022/08/27 03:39:50;;;;;;;8.80;7.13;;;23.30;91.40;;;;;;5040245;28;20025;-76
2022/08/27 03:42:16;;;;;;;9.73;8.10;;;23.30;91.40;;;;;;5025316;28;20033;-75
2022/08/27 03:44:42;;;;;;;8.98;7.57;;;23.30;91.40;;;;;;5021201;28;20033;-75
2022/08/27 03:47:08;;;;;;;10.38;8.38;;;23.30;91.40;;;;;;5038391;28;20088;-75
2022/08/27 03:49:34;;;;;;;7.93;6.57;;;23.20;91.40;;;;;;5021060;28;20057;-76
2022/08/27 03:52:00;;;;;;;9.85;7.63;;;23.30;91.50;;;;;;5026204;28;20030;-76
2022/08/27 03:54:26;;;;;;;10.25;8.52;;;23.30;91.50;;;;;;5040058;28;20076;-76
2022/08/27 03:56:51;;;;;;;9.50;7.72;;;23.20;91.50;;;;;;5031558;28;20493;-76
2022/08/27 03:59:17;;;;;;;11.73;8.20;;;23.20;91.50;;;;;;5031775;28;20030;-76
2022/08/27 04:01:44;;;;;;;13.27;8.82;;;23.20;91.50;;;;;;5023243;28;20025;-76
2022/08/27 04:04:11;;;;;;;9.02;7.82;;;23.20;91.50;;;;;;5042182;28;20025;-76
2022/08/27 04:06:37;;;;;;;10.18;8.05;;;23.20;91.50;;;;;;5027141;28;20120;-75
2022/08/27 04:09:04;;;;;;;10.82;8.07;;;23.20;91.50;;;;;;5030170;28;20397;-75
2022/08/27 04:11:33;;;;;;;10.18;8.07;;;23.20;91.50;;;;;;5017922;28;20045;-76
2022/08/27 04:13:59;;;;;;;11.13;8.65;;;23.20;91.50;;;;;;5043900;28;20494;-77
2022/08/27 04:16:26;;;;;;;10.63;7.78;;;23.20;91.70;;;;;;5031640;28;20026;-77
2022/08/27 04:18:54;;;;;;;9.88;7.93;;;23.20;91.50;;;;;;5028275;28;20414;-76
2022/08/27 04:21:22;;;;;;;8.93;7.85;;;23.20;91.50;;;;;;5031304;28;20032;-76
2022/08/27 04:23:48;;;;;;;10.07;8.13;;;23.20;91.50;;;;;;5022294;28;20033;-76
2022/08/27 04:26:14;;;;;;;10.50;8.32;;;23.20;91.50;;;;;;5041222;28;20424;-76
2022/08/27 04:28:40;;;;;;;9.85;7.68;;;23.20;91.50;;;;;;5039355;28;20483;-77
2022/08/27 04:31:07;;;;;;;11.25;8.27;;;23.20;91.50;;;;;;5024506;28;20038;-77
2022/08/27 04:33:33;;;;;;;13.77;8.52;;;23.20;91.50;;;;;;5028087;28;20031;-76
2022/08/27 04:36:05;;;;;;;12.60;8.48;;;23.20;91.50;;;;;;5030982;28;20025;-76
2022/08/27 04:38:32;;;;;;;10.43;8.45;;;23.20;91.50;;;;;;5027187;28;20039;-75
2022/08/27 04:43:42;;;;;;;10.88;8.20;;;23.20;91.60;;;;;;5025632;28;20036;-75
2022/08/27 04:46:08;;;;;;;9.57;7.93;;;23.10;91.50;;;;;;5039918;28;20022;-75
2022/08/27 04:48:35;;;;;;;9.77;7.38;;;23.20;91.60;;;;;;5032194;28;20029;-74
2022/08/27 04:51:00;;;;;;;9.07;7.55;;;23.10;91.60;;;;;;5022339;28;20052;-75
2022/08/27 04:53:26;;;;;;;11.15;8.35;;;23.10;91.60;;;;;;5021357;28;20152;-75
2022/08/27 04:55:54;;;;;;;11.20;9.23;;;23.10;91.60;;;;;;5038004;28;20095;-75
2022/08/27 04:58:21;;;;;;;10.38;8.82;;;23.00;91.60;;;;;;5017490;28;20058;-75
2022/08/27 05:00:55;;;;;;;12.75;8.50;;;23.00;91.70;;;;;;5026918;28;20487;-75
2022/08/27 05:03:22;;;;;;;12.00;8.68;;;23.00;91.70;;;;;;5034558;28;20052;-75
2022/08/27 05:05:50;;;;;;;10.95;8.80;;;23.10;91.70;;;;;;5043825;28;20026;-75
2022/08/27 05:08:16;;;;;;;12.18;8.95;;;23.10;91.90;;;;;;5031981;28;20117;-75
2022/08/27 05:10:47;;;;;;;12.13;9.10;;;23.00;91.60;;;;;;5036536;28;20125;-75
2022/08/27 05:13:14;;;;;;;11.30;8.40;;;23.00;91.70;;;;;;5039992;28;20080;-75
2022/08/27 05:15:40;;;;;;;10.60;8.25;;;23.00;91.70;;;;;;5031666;28;20022;-75
2022/08/27 05:18:07;;;;;;;10.02;8.38;;;23.00;91.60;;;;;;5031257;28;20052;-75
2022/08/27 05:20:33;;;;;;;12.52;9.05;;;23.00;91.70;;;;;;5027432;28;20025;-75
2022/08/27 05:22:59;;;;;;;14.43;8.80;;;23.00;91.70;;;;;;5030769;28;20097;-75
2022/08/27 05:25:26;;;;;;;11.75;9.50;;;23.10;91.70;;;;;;5025608;28;20465;-75
2022/08/27 05:27:52;;;;;;;12.93;9.20;;;23.10;91.60;;;;;;5026943;28;20108;-75
2022/08/27 05:30:18;;;;;;;12.05;9.48;;;23.00;91.70;;;;;;5028917;28;20513;-75
2022/08/27 05:32:44;;;;;;;10.90;7.97;;;23.00;91.70;;;;;;5026502;28;20034;-76
2022/08/27 05:35:10;;;;;;;10.65;8.80;;;23.00;91.70;;;;;;5031510;28;20111;-75
2022/08/27 05:37:36;;;;;;;11.25;8.85;;;23.00;91.70;;;;;;5036289;28;20037;-75
2022/08/27 05:40:04;;;;;;;11.15;8.85;;;23.00;91.70;;;;;;5021708;28;20029;-75
2022/08/27 05:42:31;;;;;;;10.50;8.43;;;23.00;91.70;;;;;;5027370;28;20026;-76
2022/08/27 05:44:57;;;;;;;10.27;7.57;;;22.90;91.70;;;;;;5035629;28;20103;-75
2022/08/27 05:47:24;;;;;;;10.43;8.13;;;23.00;91.70;;;;;;5025696;28;20502;-76
2022/08/27 05:49:53;;;;;;;15.80;7.57;;;23.00;91.80;;;;;;5029826;28;20034;-76
2022/08/27 05:52:20;;;;;;;7.88;6.85;;;23.00;91.80;;;;;;5027581;28;20025;-75
2022/08/27 05:54:46;;;;;;;9.27;7.30;;;23.00;91.80;;;;;;5028609;28;20121;-76
2022/08/27 05:57:12;;;;;;;8.60;6.93;;;22.90;91.70;;;;;;5027029;28;20084;-76
2022/08/27 06:02:23;;;;;;;8.02;6.10;;;22.90;91.80;;;;;;5027929;28;20057;-76
2022/08/27 06:04:49;;;;;;;6.43;5.78;;;22.90;91.80;;;;;;5048047;28;20121;-76
2022/08/27 06:07:15;;;;;;;8.77;7.10;;;22.90;91.80;;;;;;5025162;28;20120;-76
2022/08/27 06:09:42;;;;;;;8.73;6.65;;;22.90;91.90;;;;;;5026907;28;20482;-76
2022/08/27 06:12:08;;;;;;;7.78;6.40;;;22.90;91.90;;;;;;5024426;28;20034;-76
2022/08/27 06:14:35;;;;;;;7.03;6.03;;;22.90;91.90;;;;;;5028581;28;20026;-76
2022/08/27 06:17:05;;;;;;;6.88;5.82;;;22.90;91.90;;;;;;5027193;28;20021;-76
2022/08/27 06:19:33;;;;;;;7.25;6.47;;;22.80;91.90;;;;;;5024797;28;20036;-76
2022/08/27 06:21:59;;;;;;;6.85;6.00;;;22.80;91.90;;;;;;5032697;28;20033;-76
2022/08/27 06:24:28;;;;;;;8.57;5.75;;;22.80;91.90;;;;;;5022641;28;20045;-76
2022/08/27 06:26:55;;;;;;;6.80;5.85;;;22.80;91.90;;;;;;5032652;28;20064;-76
2022/08/27 06:29:22;;;;;;;7.35;5.65;;;22.80;91.90;;;;;;5023274;28;20313;-76
2022/08/27 06:31:51;;;;;;;9.32;6.57;;;22.80;91.90;;;;;;5036680;28;20404;-76
2022/08/27 06:34:17;;;;;;;7.15;5.80;;;22.80;92.00;;;;;;5030699;28;20036;-76
2022/08/27 06:36:43;;;;;;;6.72;5.85;;;22.80;92.00;;;;;;5030798;28;20022;-76
2022/08/27 06:39:12;;;;;;;8.00;6.07;;;22.80;92.00;;;;;;5032385;28;20025;-76
2022/08/27 06:41:39;;;;;;;6.00;5.30;;;22.80;92.00;;;;;;5023295;28;20062;-76
2022/08/27 06:44:05;;;;;;;6.80;5.00;;;22.80;92.10;;;;;;5036002;28;20029;-76
2022/08/27 06:46:31;;;;;;;7.20;5.38;;;22.80;92.00;;;;;;5026614;28;20060;-76
2022/08/27 06:48:59;;;;;;;6.13;5.50;;;22.80;92.10;;;;;;5032953;28;20042;-76
2022/08/27 06:51:32;;;;;;;7.40;5.70;;;22.80;92.10;;;;;;5036143;28;20072;-75
2022/08/27 06:54:00;;;;;;;7.95;5.25;;;22.80;92.00;;;;;;5022540;28;20156;-76
2022/08/27 06:56:27;;;;;;;7.45;5.68;;;22.80;92.10;;;;;;5023859;28;20022;-76
2022/08/27 06:58:54;;;;;;;6.95;5.10;;;22.80;92.20;;;;;;5025717;28;20315;-76
2022/08/27 07:01:26;;;;;;;6.65;5.55;;;22.80;92.10;;;;;;5017324;28;20030;-76
2022/08/27 07:03:58;;;;;;;6.47;5.40;;;22.80;92.20;;;;;;5025546;28;20030;-76
2022/08/27 07:06:25;;;;;;;5.78;4.53;;;22.80;92.20;;;;;;5026040;28;20038;-76
2022/08/27 07:08:51;;;;;;;6.03;4.53;;;22.80;92.20;;;;;;5024877;28;20038;-76
2022/08/27 07:11:17;;;;;;;6.50;4.60;;;22.70;92.20;;;;;;5026829;28;20028;-76
2022/08/27 07:13:46;;;;;;;5.90;4.70;;;22.70;92.20;;;;;;5025640;28;20026;-76
2022/08/27 07:16:13;;;;;;;8.25;4.95;;;22.70;92.20;;;;;;5036264;28;20168;-76
2022/08/27 07:18:40;;;;;;;5.85;5.25;;;22.70;92.20;;;;;;5031316;28;20025;-76
2022/08/27 07:21:06;;;;;;;5.85;4.45;;;22.70;92.20;;;;;;5001793;28;20038;-76
2022/08/27 07:23:34;;;;;;;6.07;4.82;;;22.70;92.20;;;;;;5006370;28;20498;-76
2022/08/27 07:26:00;;;;;;;6.03;4.00;;;22.70;92.30;;;;;;5005064;28;20037;-76
2022/08/27 07:28:29;;;;;;;5.40;4.28;;;22.70;92.30;;;;;;5012702;28;20486;-76
2022/08/27 07:30:55;;;;;;;5.15;4.28;;;22.60;92.20;;;;;;5020835;28;20033;-76
2022/08/27 07:33:21;;;;;;;5.18;4.32;;;22.60;92.30;;;;;;5006655;28;20026;-76
2022/08/27 07:35:48;;;;;;;6.97;4.65;;;22.70;92.30;;;;;;5010339;28;20140;-76
2022/08/27 07:38:14;;;;;;;4.80;4.28;;;22.70;92.30;;;;;;5006827;28;20112;-76
2022/08/27 07:40:40;;;;;;;5.63;4.00;;;22.70;92.30;;;;;;5003206;28;20029;-76
2022/08/27 07:45:54;;;;;;;7.95;4.53;;;22.70;92.40;;;;;;5008030;28;20426;-76
2022/08/27 07:48:24;;;;;;;7.50;4.35;;;22.70;92.30;;;;;;5003506;28;20033;-76
2022/08/27 07:50:51;;;;;;;4.22;3.83;;;22.70;92.40;;;;;;5008441;28;20029;-76
2022/08/27 07:53:18;;;;;;;6.20;3.92;;;22.70;92.30;;;;;;5014237;28;20461;-76
2022/08/27 07:55:44;;;;;;;7.57;4.35;;;22.70;92.30;;;;;;5003174;28;20411;-76
2022/08/27 07:58:12;;;;;;;4.80;3.78;;;22.60;92.30;;;;;;5011862;28;20392;-76
2022/08/27 08:00:44;;;;;;;4.85;3.85;;;22.60;92.30;;;;;;5005301;28;20061;-76
2022/08/27 08:03:11;;;;;;;4.20;3.58;;;22.60;92.40;;;;;;5009605;28;20080;-76
2022/08/27 08:05:43;;;;;;;4.63;3.90;;;22.60;92.30;;;;;;5010931;28;20049;-76
2022/08/27 08:08:10;;;;;;;5.35;3.50;;;22.60;92.30;;;;;;5007428;28;20033;-76
2022/08/27 08:10:36;;;;;;;5.60;3.50;;;22.60;92.30;;;;;;5002002;28;20072;-76
2022/08/27 08:13:02;;;;;;;4.45;3.50;;;22.60;92.40;;;;;;5010622;28;20036;-76
2022/08/27 08:15:28;;;;;;;5.05;3.70;;;22.60;92.40;;;;;;5011726;28;20025;-76
2022/08/27 08:17:54;;;;;;;4.43;3.00;;;22.60;92.30;;;;;;5015788;28;20026;-76
2022/08/27 08:20:20;;;;;;;3.38;3.05;;;22.60;92.30;;;;;;5006990;28;20067;-76
2022/08/27 08:22:47;;;;;;;4.07;2.92;;;22.60;92.40;;;;;;4994979;28;20050;-76
2022/08/27 08:25:14;;;;;;;4.28;3.13;;;22.60;92.40;;;;;;5001663;28;20027;-76
2022/08/27 08:27:41;;;;;;;5.47;3.60;;;22.60;92.40;;;;;;5010755;28;20030;-76
2022/08/27 08:30:09;;;;;;;4.65;3.47;;;22.60;92.40;;;;;;4995326;28;20034;-76
2022/08/27 08:32:36;;;;;;;5.47;3.78;;;22.60;92.40;;;;;;5005810;28;20033;-76
2022/08/27 08:35:03;;;;;;;3.88;3.20;;;22.60;92.40;;;;;;5004722;28;20258;-76
2022/08/27 08:37:29;;;;;;;3.33;2.50;;;22.60;92.40;;;;;;4995781;28;20100;-76
2022/08/27 08:39:54;;;;;;;6.75;3.10;;;22.60;92.30;;;;;;5002413;28;20061;-75
2022/08/27 08:42:49;;;;;;;3.55;2.90;;;22.60;92.30;;;;;;5004258;28;20037;-76
2022/08/27 08:45:20;;;;;;;3.63;2.83;;;22.60;92.30;;;;;;4997996;28;20030;-76
2022/08/27 08:47:51;;;;;;;4.03;3.45;;;22.60;92.40;;;;;;5009233;28;20022;-76
2022/08/27 08:50:29;;;;;;;3.97;3.15;;;22.60;92.40;;;;;;5000072;28;20062;-75
2022/08/27 08:53:08;;;;;;;4.32;3.58;;;22.50;92.30;;;;;;4999955;28;20092;-75
2022/08/27 08:55:39;;;;;;;3.50;3.13;;;22.50;92.40;;;;;;5003103;28;20071;-80
2022/08/27 08:58:33;;;;;;;3.72;2.25;;;22.40;92.00;;;;;;5008860;28;20033;-81
2022/08/27 09:01:02;;;;;;;6.30;2.83;;;21.70;93.00;;;;;;5003104;28;20117;-81
2022/08/27 09:03:32;;;;;;;3.25;2.35;;;21.10;93.90;;;;;;5009127;28;20030;-81
2022/08/27 09:06:11;;;;;;;4.72;2.42;;;20.60;94.70;;;;;;5017441;28;20037;-80
2022/08/27 09:08:40;;;;;;;6.75;2.17;;;20.10;95.50;;;;;;5012852;28;20759;-80
2022/08/27 09:11:18;;;;;;;6.20;3.00;;;20.10;95.80;;;;;;5007682;28;20037;-81
2022/08/27 09:14:04;;;;;;;4.65;2.72;;;19.60;96.40;;;;;;5012956;28;20508;-80
2022/08/27 09:16:31;;;;;;;5.38;3.25;;;19.80;96.30;;;;;;5022201;28;20083;-80
2022/08/27 09:19:00;;;;;;;5.65;2.53;;;19.90;96.70;;;;;;5022893;28;20041;-80
2022/08/27 09:21:43;;;;;;;4.90;3.22;;;19.70;96.70;;;;;;5018650;28;20022;-80
2022/08/27 09:24:34;;;;;;;5.10;2.30;;;20.00;96.30;;;;;;5019999;28;20041;-81
2022/08/27 09:27:00;;;;;;;5.40;2.50;;;19.80;96.70;;;;;;5012859;28;20085;-80
2022/08/27 09:29:27;;;;;;;3.38;2.38;;;19.70;96.90;;;;;;5005080;28;20026;-81
2022/08/27 09:32:05;;;;;;;3.83;2.45;;;19.80;96.80;;;;;;5013570;28;20032;-81
2022/08/27 09:34:37;;;;;;;6.38;3.20;;;19.60;97.10;;;;;;5009738;28;20038;-80
2022/08/27 09:37:19;;;;;;;7.38;2.83;;;19.60;97.10;;;;;;5018515;28;20026;-81
2022/08/27 09:39:52;;;;;;;6.95;2.72;;;19.50;97.40;;;;;;5008253;28;20022;-80
2022/08/27 09:42:45;;;;;;;5.35;2.95;;;19.80;97.10;;;;;;5018100;28;20022;-82
2022/08/27 09:45:14;;;;;;;4.63;3.03;;;19.80;97.00;;;;;;5036760;28;20034;-80
2022/08/27 09:47:42;;;;;;;8.27;3.20;;;20.00;96.70;;;;;;5010108;28;20029;-80
2022/08/27 09:50:08;;;;;;;10.07;3.33;;;20.10;96.60;;;;;;5020514;28;20041;-81
2022/08/27 09:52:47;;;;;;;4.15;2.80;;;20.00;96.80;;;;;;5022476;28;20029;-80
2022/08/27 09:55:29;;;;;;;5.90;3.50;;;20.00;96.60;;;;;;5012956;28;20026;-80
2022/08/27 09:57:55;;;;;;;6.65;3.50;;;20.00;96.60;;;;;;5027304;28;20045;-80
2022/08/27 10:00:36;;;;;;;7.25;3.60;;;20.00;96.40;;;;;;5024009;28;20030;-81
2022/08/27 10:03:03;;;;;;;5.55;3.28;;;19.90;96.70;;;;;;5038239;28;20026;-80
2022/08/27 10:05:35;;;;;;;9.52;3.95;;;20.00;96.50;;;;;;5012923;28;20022;-80
2022/08/27 10:08:32;;;;;;;5.82;3.50;;;20.00;96.60;;;;;;5028709;28;20026;-80
2022/08/27 10:11:08;;;;;;;7.82;3.55;;;20.00;96.30;;;;;;4978166;28;20093;-80
2022/08/27 10:13:46;;;;;;;4.45;3.63;;;19.90;96.60;;;;;;5014493;28;20044;-80
2022/08/27 10:16:42;;;;;;;4.80;3.58;;;19.70;97.00;;;;;;5015336;28;20120;-79
2022/08/27 10:19:17;;;;;;;9.07;4.05;;;19.70;96.80;;;;;;5003105;28;20041;-80
2022/08/27 10:22:09;;;;;;;7.03;3.75;;;19.60;97.20;;;;;;5001553;28;20422;-80
2022/08/27 10:24:54;;;;;;;7.38;3.45;;;19.60;97.00;;;;;;5014052;28;20395;-80
2022/08/27 10:27:50;;;;;;;10.48;4.13;;;19.90;97.10;;;;;;5011358;28;20382;-80
2022/08/27 10:30:22;;;;;;;5.68;3.33;;;19.80;96.90;;;;;;5009105;28;20386;-80
2022/08/27 10:33:15;;;;;;;7.72;3.58;;;20.00;96.40;;;;;;5039127;28;20490;-80
2022/08/27 10:35:50;;;;;;;8.05;4.25;;;19.90;96.70;;;;;;5005373;28;20482;-79
2022/08/27 10:38:32;;;;;;;5.72;3.65;;;19.70;96.90;;;;;;5004021;28;20129;-80
2022/08/27 10:41:08;;;;;;;6.82;3.80;;;19.90;96.90;;;;;;5030185;28;20049;-80
2022/08/27 10:44:11;;;;;;;6.28;3.47;;;19.90;96.60;;;;;;5004705;28;20025;-80
2022/08/27 10:46:46;;;;;;;6.40;3.63;;;20.00;96.50;;;;;;5000067;28;20519;-80
2022/08/27 10:49:28;;;;;;;6.93;3.53;;;20.00;96.20;;;;;;5019236;28;20425;-80
2022/08/27 10:52:34;;;;;;;7.50;3.40;;;20.00;96.20;;;;;;5013223;28;20030;-81
2022/08/27 10:55:17;;;;;;;7.15;4.03;;;20.20;95.70;;;;;;5018557;28;20032;-81
2022/08/27 10:58:01;;;;;;;7.57;4.00;;;19.90;95.90;;;;;;5011484;28;20479;-80
2022/08/27 11:00:40;;;;;;;8.27;3.08;;;19.90;95.80;;;;;;5013433;28;20124;-80
2022/08/27 11:03:14;;;;;;;10.43;3.65;;;20.00;96.10;;;;;;5013502;28;20033;-79
2022/08/27 11:05:47;;;;;;;11.60;3.40;;;20.10;96.10;;;;;;5013888;28;20032;-80
2022/08/27 11:08:19;;;;;;;10.75;3.95;;;20.20;95.70;;;;;;5016895;28;20030;-79
2022/08/27 11:10:55;;;;;;;10.68;3.97;;;20.00;95.50;;;;;;5026069;28;20065;-79
2022/08/27 11:13:28;;;;;;;10.82;5.00;;;20.20;95.30;;;;;;5032227;28;20410;-79
2022/08/27 11:15:55;;;;;;;10.05;4.90;;;20.10;95.20;;;;;;5022061;28;20024;-79
2022/08/27 11:18:36;;;;;;;9.05;4.43;;;20.10;95.20;;;;;;5047935;28;20429;-79
2022/08/27 11:21:10;;;;;;;7.32;4.60;;;20.00;95.20;;;;;;5014560;28;20030;-81
2022/08/27 11:23:42;;;;;;;5.40;4.25;;;20.10;95.30;;;;;;4996462;28;20038;-81
2022/08/27 11:26:08;;;;;;;8.55;4.43;;;20.10;95.50;;;;;;5018229;28;20074;-83
2022/08/27 11:28:40;;;;;;;13.13;5.60;;;20.20;95.50;;;;;;5001542;28;20482;-79
2022/08/27 11:31:31;;;;;;;10.88;5.32;;;20.30;95.20;;;;;;5012360;28;20387;-76
2022/08/27 11:34:09;;;;;;;8.40;5.25;;;20.10;95.40;;;;;;5001288;28;20111;-76
2022/08/27 11:36:51;;;;;;;8.00;5.57;;;20.40;95.20;;;;;;5004322;28;20105;-76
2022/08/27 11:39:45;;;;;;;8.98;6.53;;;20.50;95.00;;;;;;5010354;28;20049;-76
2022/08/27 11:42:14;;;;;;;13.63;6.68;;;20.70;94.70;;;;;;5020048;28;20030;-76
2022/08/27 11:44:48;;;;;;;8.68;6.10;;;20.80;94.60;;;;;;5003275;28;20034;-76
2022/08/27 11:47:20;;;;;;;7.85;6.80;;;20.90;94.40;;;;;;5007959;28;20033;-76
2022/08/27 11:49:56;;;;;;;8.67;6.73;;;21.00;94.20;;;;;;5023885;28;20273;-76
2022/08/27 11:52:38;;;;;;;8.75;6.60;;;21.10;94.00;;;;;;5033062;28;20487;-76
2022/08/27 11:55:19;;;;;;;8.68;7.80;;;21.20;94.00;;;;;;5001978;28;20031;-76
2022/08/27 11:57:47;;;;;;;11.23;7.70;;;21.30;93.80;;;;;;4998655;28;20035;-76
2022/08/27 12:00:18;;;;;;;11.75;7.03;;;21.30;93.80;;;;;;5000997;28;20025;-76
2022/08/27 12:02:56;;;;;;;10.48;7.18;;;21.30;93.70;;;;;;5004555;28;20101;-76
2022/08/27 12:05:32;;;;;;;8.80;7.00;;;21.40;93.60;;;;;;5016351;28;20038;-76
2022/08/27 12:07:58;;;;;;;10.60;7.90;;;21.40;93.50;;;;;;5004976;28;20034;-76
2022/08/27 12:11:05;;;;;;;9.63;7.45;;;21.50;93.50;;;;;;5008249;28;20489;-76
2022/08/27 12:13:37;;;;;;;11.13;6.90;;;21.50;93.50;;;;;;4998140;28;20049;-76
2022/08/27 12:16:11;;;;;;;8.27;7.30;;;21.50;93.40;;;;;;5010621;28;20034;-76
2022/08/27 12:18:43;;;;;;;9.93;6.97;;;21.60;93.40;;;;;;5016299;28;20029;-80
2022/08/27 12:21:27;;;;;;;8.60;6.78;;;21.30;92.90;;;;;;5024644;28;20026;-80
2022/08/27 12:23:59;;;;;;;8.85;5.93;;;20.90;93.20;;;;;;5018121;28;20042;-80
2022/08/27 12:26:29;;;;;;;11.77;6.57;;;20.70;93.90;;;;;;5019017;28;20023;-80
2022/08/27 12:29:32;;;;;;;12.63;6.38;;;20.80;94.10;;;;;;5018921;28;20025;-80
2022/08/27 12:32:32;;;;;;;10.27;5.47;;;20.90;93.80;;;;;;5029892;28;20113;-80
2022/08/27 12:35:01;;;;;;;5.43;3.85;;;21.00;93.50;;;;;;5026386;28;20584;-80
2022/08/27 12:37:30;;;;;;;8.43;3.25;;;21.10;93.30;;;;;;5016143;28;20045;-80
2022/08/27 12:39:59;;;;;;;9.35;4.40;;;21.10;93.10;;;;;;5015897;28;20090;-80
2022/08/27 12:42:25;;;;;;;5.85;3.67;;;21.10;92.90;;;;;;5022223;28;20026;-80
2022/08/27 12:44:56;;;;;;;8.82;3.72;;;21.20;93.10;;;;;;5025832;28;20109;-80
2022/08/27 12:47:22;;;;;;;8.80;4.70;;;21.00;93.10;;;;;;5030007;28;20124;-80
2022/08/27 12:49:57;;;;;;;7.45;3.72;;;20.90;92.70;;;;;;5023714;28;20030;-80
2022/08/27 12:52:48;;;;;;;6.60;3.70;;;20.80;93.20;;;;;;5015619;28;20053;-80
2022/08/27 12:55:23;;;;;;;9.55;3.88;;;20.80;93.40;;;;;;5009939;28;20029;-80
2022/08/27 12:58:01;;;;;;;6.43;3.15;;;21.10;93.20;;;;;;5030270;28;20033;-80
2022/08/27 13:00:34;;;;;;;6.95;3.55;;;21.00;93.20;;;;;;5024093;28;20018;-80
2022/08/27 13:03:19;;;;;;;4.57;2.80;;;20.90;93.40;;;;;;5019386;28;20038;-80
2022/08/27 13:05:47;;;;;;;11.93;2.92;;;21.00;93.40;;;;;;5024451;28;20038;-80
2022/08/27 13:08:41;;;;;;;10.50;3.13;;;21.10;93.20;;;;;;5031668;28;20032;-80
2022/08/27 13:11:21;;;;;;;6.68;3.13;;;21.10;93.00;;;;;;5023535;28;20041;-80
2022/08/27 13:13:48;;;;;;;12.48;3.97;;;21.30;93.00;;;;;;5027010;28;20025;-81
2022/08/27 13:16:17;;;;;;;6.60;3.22;;;21.00;92.90;;;;;;5023213;28;20073;-80